Time;durP1;ratioP1;P1;durP2;ratioP2;P2;SDS_P1;SDS_P2;PMS_P1;PMS_P2;Temp;Humidity;BMP_temperature;BMP_pressure;BME280_temperature;BME280_humidity;BME280_pressure;Samples;Min_cycle;Max_cycle;Signal;HPM_P1;HPM_P2
2023/05/31 00:01:48;;;;;;;3.63;1.37;;;;;;;;;;5045521;28;20207;-91
2023/05/31 00:04:14;;;;;;;2.40;1.37;;;13.40;75.00;;;;;;5029883;28;20174;-90
2023/05/31 00:06:39;;;;;;;5.20;1.83;;;13.20;78.60;;;;;;5047798;28;20427;-89
2023/05/31 00:09:05;;;;;;;4.50;1.20;;;13.20;78.50;;;;;;5034534;28;20292;-89
2023/05/31 00:11:31;;;;;;;3.27;2.50;;;13.10;79.40;;;;;;5034656;28;20268;-90
2023/05/31 00:13:56;;;;;;;3.03;1.43;;;13.10;79.40;;;;;;5031336;28;20480;-90
2023/05/31 00:16:22;;;;;;;2.90;1.40;;;13.10;78.90;;;;;;5032471;28;20204;-90
2023/05/31 00:18:48;;;;;;;7.50;1.60;;;;;;;;;;5042799;28;20417;-89
2023/05/31 00:21:13;;;;;;;2.37;0.93;;;13.00;82.10;;;;;;5046719;28;20645;-90
2023/05/31 00:23:39;;;;;;;3.87;1.73;;;;;;;;;;5051587;28;20443;-90
2023/05/31 00:26:05;;;;;;;4.37;1.57;;;12.80;85.20;;;;;;5048232;28;20211;-89
2023/05/31 00:28:31;;;;;;;1.70;1.23;;;;;;;;;;5033533;28;20455;-90
2023/05/31 00:30:57;;;;;;;2.57;1.47;;;;;;;;;;5041308;28;20212;-89
2023/05/31 00:33:22;;;;;;;2.23;1.27;;;12.50;90.70;;;;;;5049793;28;21024;-90
2023/05/31 00:35:48;;;;;;;2.50;1.27;;;12.40;91.90;;;;;;5032818;28;20427;-89
2023/05/31 00:38:13;;;;;;;2.93;1.33;;;12.30;92.90;;;;;;5034567;28;20173;-88
2023/05/31 00:40:39;;;;;;;5.50;0.93;;;13.00;95.70;;;;;;5057419;28;20224;-89
2023/05/31 00:43:05;;;;;;;2.07;1.20;;;11.90;96.10;;;;;;5033441;28;20185;-88
2023/05/31 00:45:32;;;;;;;2.50;2.30;;;11.90;96.50;;;;;;5033201;28;20184;-89
2023/05/31 00:48:00;;;;;;;4.10;1.50;;;11.60;97.60;;;;;;5048593;28;20179;-87
2023/05/31 00:50:26;;;;;;;2.05;1.05;;;;;;;;;;5051474;28;20320;-88
2023/05/31 00:52:54;;;;;;;2.60;1.10;;;11.70;98.10;;;;;;5041641;28;20188;-88
2023/05/31 00:55:20;;;;;;;1.45;1.33;;;;;;;;;;5032842;28;20494;-88
2023/05/31 00:57:46;;;;;;;2.45;1.40;;;11.60;99.90;;;;;;5049440;28;20186;-88
2023/05/31 01:00:12;;;;;;;3.63;1.80;;;12.50;99.90;;;;;;5052900;28;20207;-88
2023/05/31 01:03:27;;;;;;;5.72;1.58;;;11.50;99.90;;;;;;5059344;28;20177;-88
2023/05/31 01:05:52;;;;;;;3.00;1.52;;;11.40;99.90;;;;;;5066626;28;20177;-87
2023/05/31 01:08:19;;;;;;;1.60;0.90;;;11.30;99.90;;;;;;5032526;28;20180;-89
2023/05/31 01:10:45;;;;;;;1.63;1.20;;;11.30;99.90;;;;;;5045670;28;20209;-88
2023/05/31 01:13:31;;;;;;;2.17;1.73;;;11.20;99.90;;;;;;5021659;28;20185;-88
2023/05/31 01:16:10;;;;;;;8.65;2.10;;;11.20;99.90;;;;;;5020799;28;20192;-88
2023/05/31 01:18:44;;;;;;;4.90;1.48;;;11.20;99.90;;;;;;5050171;28;20169;-87
2023/05/31 01:21:11;;;;;;;2.20;1.25;;;11.20;99.90;;;;;;5049006;28;20172;-87
2023/05/31 01:23:48;;;;;;;2.67;1.30;;;11.10;99.90;;;;;;5050564;28;20207;-88
2023/05/31 01:26:33;;;;;;;1.45;1.25;;;11.00;99.90;;;;;;5038400;28;20184;-88
2023/05/31 01:29:09;;;;;;;2.13;1.30;;;11.10;99.90;;;;;;5048872;28;20216;-87
2023/05/31 01:31:36;;;;;;;6.35;1.48;;;11.00;99.90;;;;;;5049331;28;20569;-88
2023/05/31 01:34:04;;;;;;;1.77;1.52;;;11.00;99.90;;;;;;5022056;28;20215;-88
2023/05/31 01:36:29;;;;;;;6.93;1.30;;;11.00;99.90;;;;;;5049454;28;20176;-88
2023/05/31 01:38:55;;;;;;;5.53;1.60;;;11.00;99.90;;;;;;5028583;28;20205;-89
2023/05/31 01:41:23;;;;;;;2.03;1.17;;;10.90;99.90;;;;;;5032827;28;20189;-88
2023/05/31 01:43:49;;;;;;;3.92;1.75;;;10.90;99.90;;;;;;5050577;28;20185;-88
2023/05/31 01:46:18;;;;;;;12.07;1.92;;;10.90;99.90;;;;;;5027533;28;20204;-88
2023/05/31 01:48:46;;;;;;;4.10;1.00;;;11.00;99.90;;;;;;5033174;28;20208;-88
2023/05/31 01:51:14;;;;;;;4.55;1.15;;;10.90;99.90;;;;;;5052340;28;20218;-87
2023/05/31 01:53:42;;;;;;;2.67;1.45;;;10.90;99.90;;;;;;5035742;28;20177;-87
2023/05/31 01:56:11;;;;;;;3.90;1.63;;;10.90;99.90;;;;;;5028892;28;20242;-88
2023/05/31 01:58:41;;;;;;;4.55;1.35;;;10.80;99.90;;;;;;5035397;28;20216;-88
2023/05/31 02:01:10;;;;;;;2.95;1.10;;;10.80;99.90;;;;;;5049627;28;20184;-88
2023/05/31 02:03:36;;;;;;;3.50;1.08;;;11.70;99.90;;;;;;5029868;28;20177;-88
2023/05/31 02:06:02;;;;;;;5.00;1.30;;;10.50;99.90;;;;;;5061831;28;20216;-88
2023/05/31 02:08:27;;;;;;;6.40;0.93;;;10.40;99.90;;;;;;5045831;28;20188;-88
2023/05/31 02:10:54;;;;;;;1.60;1.13;;;10.40;99.90;;;;;;5045853;28;20197;-89
2023/05/31 02:13:25;;;;;;;3.08;1.90;;;10.40;99.90;;;;;;5060300;28;20192;-88
2023/05/31 02:15:51;;;;;;;2.47;1.45;;;10.50;99.90;;;;;;5040492;28;20241;-88
2023/05/31 02:18:16;;;;;;;3.67;1.10;;;10.60;99.90;;;;;;5036721;28;20240;-89
2023/05/31 02:20:43;;;;;;;2.70;1.40;;;10.60;99.90;;;;;;5052484;28;20802;-88
2023/05/31 02:23:09;;;;;;;2.75;1.30;;;10.60;99.90;;;;;;5052147;28;20436;-88
2023/05/31 02:25:34;;;;;;;12.83;1.63;;;10.70;99.90;;;;;;5041388;28;20189;-88
2023/05/31 02:28:00;;;;;;;4.23;2.00;;;10.60;99.90;;;;;;5075573;28;20217;-89
2023/05/31 02:30:31;;;;;;;2.10;1.47;;;10.60;99.90;;;;;;5075249;28;20209;-88
2023/05/31 02:32:56;;;;;;;3.28;1.23;;;10.70;99.90;;;;;;5045089;28;20167;-86
2023/05/31 02:35:22;;;;;;;1.23;0.97;;;;;;;;;;5072486;28;20434;-88
2023/05/31 02:37:48;;;;;;;2.53;1.30;;;;;;;;;;5056010;28;20204;-89
2023/05/31 02:40:14;;;;;;;3.20;1.60;;;10.50;99.90;;;;;;5045144;28;20507;-88
2023/05/31 02:42:41;;;;;;;3.43;1.70;;;10.40;99.90;;;;;;5037078;28;20435;-88
2023/05/31 02:45:08;;;;;;;2.25;1.30;;;10.30;99.90;;;;;;5051707;28;20177;-88
2023/05/31 02:47:36;;;;;;;2.83;1.48;;;10.30;99.90;;;;;;5026489;28;20201;-88
2023/05/31 02:50:02;;;;;;;4.68;1.45;;;10.30;99.90;;;;;;5033956;28;20756;-88
2023/05/31 02:52:27;;;;;;;1.80;1.43;;;10.80;99.90;;;;;;5033617;28;20280;-88
2023/05/31 02:54:53;;;;;;;7.77;1.47;;;10.20;99.90;;;;;;5050876;28;20215;-89
2023/05/31 02:57:18;;;;;;;3.40;1.30;;;10.20;99.90;;;;;;5043951;28;20209;-88
2023/05/31 02:59:45;;;;;;;2.90;1.40;;;10.10;99.90;;;;;;5051254;28;20261;-89
2023/05/31 03:02:11;;;;;;;4.28;1.50;;;;;;;;;;5039371;28;20182;-88
2023/05/31 03:04:38;;;;;;;5.30;1.73;;;;;;;;;;5051964;28;20185;-88
2023/05/31 03:07:03;;;;;;;3.17;1.83;;;10.00;99.90;;;;;;5052552;28;20442;-88
2023/05/31 03:09:30;;;;;;;3.63;1.23;;;;;;;;;;5035189;28;20217;-88
2023/05/31 03:11:56;;;;;;;3.28;1.75;;;;;;;;;;5042235;28;20431;-88
2023/05/31 03:14:21;;;;;;;2.30;1.37;;;;;;;;;;5051236;28;20653;-88
2023/05/31 03:16:47;;;;;;;1.70;1.20;;;;;;;;;;5049880;28;20427;-88
2023/05/31 03:19:13;;;;;;;2.47;1.43;;;9.90;99.90;;;;;;5049689;28;20458;-88
2023/05/31 03:21:39;;;;;;;2.40;1.40;;;9.90;99.90;;;;;;5050813;28;20436;-88
2023/05/31 03:24:05;;;;;;;3.30;1.67;;;9.90;99.90;;;;;;5048142;28;20254;-88
2023/05/31 03:26:31;;;;;;;2.47;0.90;;;9.90;99.90;;;;;;5034599;28;20415;-88
2023/05/31 03:28:56;;;;;;;3.85;1.00;;;9.90;99.90;;;;;;5052322;28;20236;-88
2023/05/31 03:31:22;;;;;;;3.63;1.60;;;10.00;99.90;;;;;;5061267;28;20208;-89
2023/05/31 03:33:48;;;;;;;2.23;1.30;;;;;;;;;;5057472;28;20181;-89
2023/05/31 03:36:13;;;;;;;1.88;1.50;;;10.00;99.90;;;;;;5029529;28;20180;-88
2023/05/31 03:38:39;;;;;;;1.90;1.50;;;9.90;99.90;;;;;;5036294;28;20227;-87
2023/05/31 03:41:04;;;;;;;4.10;1.50;;;9.90;99.90;;;;;;5041417;28;20223;-88
2023/05/31 03:43:30;;;;;;;2.50;1.47;;;10.00;99.90;;;;;;5052875;28;20188;-88
2023/05/31 03:46:00;;;;;;;2.33;1.40;;;10.10;99.90;;;;;;5051618;28;20190;-88
2023/05/31 03:48:26;;;;;;;3.78;1.33;;;;;;;;;;5053193;28;20831;-88
2023/05/31 03:50:52;;;;;;;1.00;0.80;;;10.20;99.90;;;;;;5049812;28;20252;-88
2023/05/31 03:53:18;;;;;;;1.37;0.97;;;;;;;;;;5051377;28;20215;-88
2023/05/31 03:55:43;;;;;;;2.10;1.13;;;10.30;99.90;;;;;;5030534;28;20261;-89
2023/05/31 03:58:10;;;;;;;3.03;1.40;;;;;;;;;;5049331;28;20435;-87
2023/05/31 04:00:36;;;;;;;3.72;1.40;;;10.40;99.90;;;;;;5049794;28;20201;-87
2023/05/31 04:03:02;;;;;;;4.17;1.70;;;;;;;;;;5045799;28;20177;-88
2023/05/31 04:05:27;;;;;;;5.20;1.57;;;;;;;;;;5068187;28;20196;-87
2023/05/31 04:07:53;;;;;;;3.60;1.53;;;10.60;99.90;;;;;;5044585;28;20535;-88
2023/05/31 04:10:19;;;;;;;5.57;1.90;;;;;;;;;;5032947;28;20466;-88
2023/05/31 04:12:44;;;;;;;2.20;1.40;;;10.80;99.90;;;;;;5040995;28;20218;-87
2023/05/31 04:15:10;;;;;;;2.40;1.13;;;10.90;99.90;;;;;;5047466;28;20508;-88
2023/05/31 04:17:36;;;;;;;1.97;1.37;;;11.70;99.90;;;;;;5031263;28;20195;-88
2023/05/31 04:20:04;;;;;;;1.70;1.17;;;15.10;99.90;;;;;;5047537;28;20455;-88
2023/05/31 04:22:29;;;;;;;3.17;1.50;;;15.70;99.90;;;;;;5050178;28;20188;-88
2023/05/31 04:24:55;;;;;;;2.87;1.47;;;18.10;99.90;;;;;;5045279;28;20185;-91
2023/05/31 04:27:21;;;;;;;3.47;1.70;;;20.00;99.90;;;;;;5049358;28;20197;-88
2023/05/31 04:29:46;;;;;;;2.20;1.67;;;;;;;;;;5029887;28;20235;-88
2023/05/31 04:32:15;;;;;;;3.17;1.73;;;22.20;91.90;;;;;;5045857;28;20184;-88
2023/05/31 04:34:41;;;;;;;5.67;1.80;;;;;;;;;;5045776;28;20935;-90
2023/05/31 04:37:08;;;;;;;2.20;1.40;;;26.30;74.00;;;;;;5043024;28;20423;-89
2023/05/31 04:39:34;;;;;;;4.57;1.93;;;;;;;;;;5047002;28;20550;-89
2023/05/31 04:42:00;;;;;;;4.17;1.53;;;;;;;;;;5048817;28;20462;-88
2023/05/31 04:44:26;;;;;;;2.57;1.50;;;;;;;;;;5045236;28;20425;-89
2023/05/31 04:46:52;;;;;;;3.80;1.70;;;;;;;;;;5037676;28;20434;-89
2023/05/31 04:49:19;;;;;;;3.30;2.30;;;;;;;;;;5045808;28;20959;-88
2023/05/31 04:51:45;;;;;;;3.03;2.37;;;;;;;;;;5021017;28;20819;-89
2023/05/31 04:54:11;;;;;;;2.73;2.43;;;;;;;;;;5047405;28;20484;-88
2023/05/31 04:56:37;;;;;;;3.90;2.40;;;;;;;;;;5051075;28;20427;-89
2023/05/31 04:59:03;;;;;;;2.50;1.90;;;;;;;;;;5048362;28;21100;-88
2023/05/31 05:01:29;;;;;;;6.37;2.23;;;;;;;;;;5045628;28;20913;-88
2023/05/31 05:03:55;;;;;;;3.37;2.60;;;;;;;;;;5064201;28;20449;-89
2023/05/31 05:06:22;;;;;;;4.00;2.77;;;;;;;;;;5062172;28;20415;-88
2023/05/31 05:08:48;;;;;;;3.50;2.90;;;;;;;;;;5062659;28;20453;-88
2023/05/31 05:11:14;;;;;;;4.27;3.70;;;;;;;;;;5035854;28;20466;-87
2023/05/31 05:13:41;;;;;;;7.93;3.53;;;36.50;33.80;;;;;;5046884;28;20878;-92
2023/05/31 05:16:06;;;;;;;4.17;3.87;;;;;;;;;;5027315;28;20498;-90
2023/05/31 05:18:32;;;;;;;4.63;4.07;;;;;;;;;;5049037;28;20526;-90
2023/05/31 05:20:58;;;;;;;6.07;3.63;;;;;;;;;;5051272;28;20419;-90
2023/05/31 05:23:24;;;;;;;3.93;3.63;;;;;;;;;;5048449;28;20912;-91
2023/05/31 05:25:51;;;;;;;5.20;4.80;;;;;;;;;;5047976;28;20423;-90
2023/05/31 05:28:17;;;;;;;4.30;3.90;;;;;;;;;;5052876;28;20452;-90
2023/05/31 05:30:43;;;;;;;4.97;4.67;;;;;;;;;;5050977;28;20466;-90
2023/05/31 05:33:09;;;;;;;5.20;4.80;;;;;;;;;;5069146;28;20425;-90
2023/05/31 05:35:35;;;;;;;4.90;4.60;;;;;;;;;;5057661;28;20964;-90
2023/05/31 05:38:01;;;;;;;5.97;5.40;;;;;;;;;;5035818;28;20438;-90
2023/05/31 05:40:27;;;;;;;6.60;5.90;;;;;;;;;;5048827;28;20420;-90
2023/05/31 05:42:53;;;;;;;6.10;5.70;;;39.60;27.10;;;;;;5049250;28;20466;-91
2023/05/31 05:45:19;;;;;;;5.57;5.07;;;;;;;;;;5048782;28;20507;-88
2023/05/31 05:47:48;;;;;;;5.53;5.23;;;;;;;;;;5048847;28;20438;-89
2023/05/31 05:50:14;;;;;;;7.00;6.40;;;;;;;;;;5044646;28;20962;-91
2023/05/31 05:52:40;;;;;;;6.10;5.70;;;;;;;;;;5049549;28;20416;-92
2023/05/31 05:55:06;;;;;;;6.17;5.53;;;;;;;;;;5050145;28;20940;-90
2023/05/31 05:57:32;;;;;;;6.10;5.70;;;;;;;;;;5037821;28;20807;-91
2023/05/31 05:59:58;;;;;;;7.20;5.57;;;;;;;;;;5045099;28;20540;-90
2023/05/31 06:02:24;;;;;;;7.63;5.00;;;;;;;;;;5032793;28;20534;-90
2023/05/31 06:04:51;;;;;;;5.80;5.30;;;;;;;;;;5047310;28;20438;-89
2023/05/31 06:07:18;;;;;;;5.03;4.60;;;;;;;;;;5039129;28;20466;-90
2023/05/31 06:09:43;;;;;;;5.07;4.70;;;35.60;27.30;;;;;;5048756;28;20477;-90
2023/05/31 06:12:09;;;;;;;7.00;4.73;;;;;;;;;;5049996;28;20438;-90
2023/05/31 06:14:36;;;;;;;4.50;4.20;;;;;;;;;;5050002;28;20187;-88
2023/05/31 06:17:01;;;;;;;3.93;3.63;;;33.30;28.60;;;;;;5032734;28;20436;-89
2023/05/31 06:19:27;;;;;;;5.20;4.03;;;33.70;30.50;;;;;;5049230;28;20462;-89
2023/05/31 06:21:56;;;;;;;4.50;3.70;;;;;;;;;;5059961;28;20185;-89
2023/05/31 06:24:21;;;;;;;4.93;3.57;;;31.70;29.90;;;;;;5042991;28;20643;-89
2023/05/31 06:26:47;;;;;;;4.43;3.90;;;;;;;;;;5042997;28;20424;-89
2023/05/31 06:29:13;;;;;;;4.23;3.83;;;;;;;;;;5053116;28;20219;-90
2023/05/31 06:31:40;;;;;;;6.57;3.50;;;;;;;;;;5051615;28;20508;-91
2023/05/31 06:34:06;;;;;;;4.87;3.53;;;;;;;;;;5053294;28;21104;-91
2023/05/31 06:36:32;;;;;;;3.93;3.70;;;;;;;;;;5049712;28;20440;-89
2023/05/31 06:38:58;;;;;;;4.30;3.83;;;;;;;;;;5054806;28;20428;-89
2023/05/31 06:41:26;;;;;;;5.17;3.47;;;34.30;30.10;;;;;;5053827;28;20437;-90
2023/05/31 06:43:52;;;;;;;4.47;3.20;;;;;;;;;;5049300;28;20473;-88
2023/05/31 06:46:18;;;;;;;3.47;3.17;;;;;;;;;;5031562;28;20460;-89
2023/05/31 06:48:43;;;;;;;4.77;3.40;;;;;;;;;;5035880;28;20453;-90
2023/05/31 06:51:10;;;;;;;4.60;4.30;;;37.10;28.80;;;;;;5052227;28;20473;-89
2023/05/31 06:53:36;;;;;;;6.63;4.67;;;;;;;;;;5034468;28;20560;-90
2023/05/31 06:56:02;;;;;;;5.17;4.70;;;;;;;;;;5051861;28;20456;-90
2023/05/31 06:58:31;;;;;;;4.80;4.30;;;37.30;28.30;;;;;;5054497;28;20973;-89
2023/05/31 07:00:57;;;;;;;5.00;4.57;;;;;;;;;;5053737;28;20434;-89
2023/05/31 07:03:23;;;;;;;3.83;3.63;;;;;;;;;;5073330;28;20436;-90
2023/05/31 07:05:49;;;;;;;4.73;4.33;;;;;;;;;;5061530;28;20456;-90
2023/05/31 07:08:15;;;;;;;5.20;4.80;;;;;;;;;;5053566;28;20435;-89
2023/05/31 07:10:41;;;;;;;5.27;4.77;;;;;;;;;;5052781;28;20470;-91
2023/05/31 07:13:07;;;;;;;4.80;4.37;;;;;;;;;;5052769;28;20515;-89
2023/05/31 07:15:34;;;;;;;4.73;4.30;;;;;;;;;;5045755;28;20517;-90
2023/05/31 07:18:00;;;;;;;5.03;4.37;;;;;;;;;;5053842;28;20428;-89
2023/05/31 07:20:26;;;;;;;5.33;5.03;;;;;;;;;;5048825;28;20459;-90
2023/05/31 07:22:52;;;;;;;6.20;4.20;;;;;;;;;;5052103;28;20428;-89
2023/05/31 07:25:18;;;;;;;5.00;4.60;;;;;;;;;;5053445;28;20428;-90
2023/05/31 07:27:44;;;;;;;4.47;4.17;;;;;;;;;;5054750;28;20611;-89
2023/05/31 07:30:10;;;;;;;6.67;5.00;;;33.50;29.20;;;;;;5033129;28;20471;-89
2023/05/31 07:32:36;;;;;;;4.77;4.33;;;;;;;;;;5070461;28;20453;-90
2023/05/31 07:35:03;;;;;;;4.37;3.97;;;34.30;30.30;;;;;;5059152;28;20250;-90
2023/05/31 07:37:29;;;;;;;4.93;4.57;;;;;;;;;;5041933;28;20434;-89
2023/05/31 07:39:55;;;;;;;5.10;4.70;;;;;;;;;;5058350;28;20478;-89
2023/05/31 07:42:20;;;;;;;4.40;4.10;;;;;;;;;;5073340;28;20412;-90
2023/05/31 07:44:48;;;;;;;5.10;4.70;;;;;;;;;;5071999;28;20433;-88
2023/05/31 07:47:15;;;;;;;5.07;4.57;;;;;;;;;;5055425;28;20440;-89
2023/05/31 07:49:40;;;;;;;5.00;4.70;;;;;;;;;;5040851;28;20489;-89
2023/05/31 07:52:07;;;;;;;4.93;4.53;;;;;;;;;;5052698;28;20432;-89
2023/05/31 07:54:33;;;;;;;5.93;4.30;;;;;;;;;;5042492;28;20435;-88
2023/05/31 07:56:59;;;;;;;7.27;4.43;;;;;;;;;;5050235;28;20422;-90
2023/05/31 07:59:25;;;;;;;6.93;5.07;;;;;;;;;;5052861;28;20839;-90
2023/05/31 08:01:51;;;;;;;5.20;4.27;;;;;;;;;;5024022;28;20432;-87
2023/05/31 08:04:17;;;;;;;5.23;4.20;;;31.70;30.00;;;;;;5032230;28;20944;-87
2023/05/31 08:06:43;;;;;;;5.03;4.63;;;;;;;;;;5034165;28;20428;-88
2023/05/31 08:09:09;;;;;;;7.00;4.50;;;;;;;;;;5052048;28;20286;-88
2023/05/31 08:11:35;;;;;;;4.50;4.20;;;31.60;31.20;;;;;;5052330;28;20491;-88
2023/05/31 08:14:02;;;;;;;6.80;4.43;;;;;;;;;;5045886;28;20435;-86
2023/05/31 08:16:28;;;;;;;7.40;4.30;;;;;;;;;;5048109;28;20991;-87
2023/05/31 08:18:54;;;;;;;4.50;4.10;;;;;;;;;;5047783;28;20451;-87
2023/05/31 08:21:20;;;;;;;4.70;4.30;;;;;;;;;;5048439;28;20513;-87
2023/05/31 08:23:46;;;;;;;4.47;4.07;;;;;;;;;;5046897;28;20516;-89
2023/05/31 08:26:12;;;;;;;4.17;3.90;;;29.40;32.80;;;;;;5049251;28;20410;-88
2023/05/31 08:28:38;;;;;;;5.70;4.73;;;;;;;;;;5051653;28;20465;-86
2023/05/31 08:31:04;;;;;;;8.00;4.10;;;;;;;;;;5028215;28;20213;-87
2023/05/31 08:33:31;;;;;;;4.10;3.80;;;;;;;;;;5071747;28;20449;-85
2023/05/31 08:35:59;;;;;;;4.60;3.97;;;;;;;;;;5054301;28;20436;-88
2023/05/31 08:38:29;;;;;;;4.20;3.70;;;31.00;32.50;;;;;;5050747;28;20406;-86
2023/05/31 08:40:59;;;;;;;4.87;4.20;;;30.00;32.30;;;;;;5031199;28;20438;-88
2023/05/31 08:43:26;;;;;;;4.53;4.07;;;29.80;32.50;;;;;;5049299;28;20450;-86
2023/05/31 08:45:52;;;;;;;5.80;4.23;;;;;;;;;;5046393;28;20434;-88
2023/05/31 08:48:21;;;;;;;4.40;4.00;;;31.60;33.50;;;;;;5048983;28;20841;-88
2023/05/31 08:50:47;;;;;;;4.80;4.40;;;;;;;;;;5030786;28;20460;-88
2023/05/31 08:53:15;;;;;;;4.57;4.13;;;;;;;;;;5038032;28;20495;-87
2023/05/31 08:55:42;;;;;;;4.40;3.93;;;29.50;32.60;;;;;;5045977;28;20485;-87
2023/05/31 08:58:10;;;;;;;4.30;3.33;;;30.30;33.20;;;;;;5049326;28;21005;-87
2023/05/31 09:00:36;;;;;;;3.57;3.27;;;31.20;34.30;;;;;;5028402;28;20455;-88
2023/05/31 09:03:05;;;;;;;3.70;3.40;;;32.10;34.20;;;;;;5048839;28;20426;-87
2023/05/31 09:05:31;;;;;;;5.60;3.80;;;;;;;;;;5038136;28;20271;-86
2023/05/31 09:08:02;;;;;;;4.00;3.60;;;30.60;30.60;;;;;;5047455;28;20419;-87
2023/05/31 09:10:28;;;;;;;3.67;3.47;;;31.70;31.70;;;;;;5047989;28;20546;-87
2023/05/31 09:12:55;;;;;;;7.03;6.23;;;;;;;;;;5024605;28;20570;-88
2023/05/31 09:15:23;;;;;;;4.73;4.43;;;32.50;29.70;;;;;;5046255;28;20434;-87
2023/05/31 09:17:50;;;;;;;5.63;3.67;;;;;;;;;;5052186;28;20440;-86
2023/05/31 09:20:16;;;;;;;4.13;3.83;;;;;;;;;;5050602;28;20460;-89
2023/05/31 09:22:42;;;;;;;6.13;3.60;;;;;;;;;;5049188;28;20418;-86
2023/05/31 09:25:08;;;;;;;3.90;3.50;;;29.90;32.00;;;;;;5049110;28;20557;-87
2023/05/31 09:27:36;;;;;;;4.03;3.73;;;30.00;33.90;;;;;;5042470;28;20477;-84
2023/05/31 09:30:08;;;;;;;4.53;3.90;;;30.00;32.90;;;;;;5048166;28;20492;-89
2023/05/31 09:32:35;;;;;;;3.93;3.40;;;29.80;33.30;;;;;;5047962;28;20545;-87
2023/05/31 09:35:17;;;;;;;4.40;2.97;;;29.70;33.10;;;;;;5044454;28;20484;-88
2023/05/31 09:37:48;;;;;;;3.10;2.90;;;29.70;33.20;;;;;;5030703;28;20446;-88
2023/05/31 09:40:24;;;;;;;4.13;3.83;;;30.00;33.60;;;;;;5048766;28;20472;-87
2023/05/31 09:42:52;;;;;;;3.80;3.40;;;29.50;32.30;;;;;;5031250;28;20803;-89
2023/05/31 09:45:18;;;;;;;4.27;3.97;;;29.90;32.40;;;;;;5046582;28;20442;-88
2023/05/31 09:47:45;;;;;;;4.93;4.07;;;;;;;;;;5050388;28;20432;-88
2023/05/31 09:50:11;;;;;;;4.80;3.90;;;;;;;;;;5047942;28;20471;-89
2023/05/31 09:52:38;;;;;;;4.17;3.77;;;;;;;;;;5046035;28;20452;-89
2023/05/31 09:55:08;;;;;;;4.27;3.80;;;30.30;33.20;;;;;;5045221;28;20509;-90
2023/05/31 09:57:40;;;;;;;4.03;3.73;;;29.90;31.40;;;;;;5029081;28;20435;-85
2023/05/31 10:00:17;;;;;;;4.13;3.50;;;29.90;31.90;;;;;;5047235;28;20542;-88
2023/05/31 10:02:53;;;;;;;5.13;4.17;;;29.80;31.50;;;;;;5061741;28;20425;-86
2023/05/31 10:05:20;;;;;;;6.23;3.47;;;29.20;31.30;;;;;;5064576;28;20430;-87
2023/05/31 10:07:50;;;;;;;3.27;3.07;;;28.60;31.40;;;;;;5038480;28;20440;-87
2023/05/31 10:10:19;;;;;;;3.57;3.23;;;28.30;31.70;;;;;;5058167;28;20448;-86
2023/05/31 10:13:01;;;;;;;3.47;3.17;;;28.00;31.80;;;;;;5051503;28;20442;-86
2023/05/31 10:15:27;;;;;;;3.73;3.43;;;28.50;32.70;;;;;;5061896;28;20534;-85
2023/05/31 10:18:01;;;;;;;4.00;3.70;;;28.10;32.40;;;;;;5068366;28;20438;-87
2023/05/31 10:20:41;;;;;;;3.23;2.93;;;28.80;30.40;;;;;;5056472;28;20213;-87
2023/05/31 10:23:16;;;;;;;3.30;2.97;;;28.60;30.70;;;;;;5043900;28;20440;-87
2023/05/31 10:25:56;;;;;;;4.07;3.47;;;29.10;31.20;;;;;;5051542;28;20436;-87
2023/05/31 10:28:31;;;;;;;3.77;3.47;;;28.90;32.20;;;;;;5053506;28;20445;-89
2023/05/31 10:30:57;;;;;;;4.23;3.83;;;29.20;33.00;;;;;;5054299;28;21024;-88
2023/05/31 10:33:30;;;;;;;3.70;3.37;;;29.50;33.50;;;;;;5049648;28;20460;-88
2023/05/31 10:35:59;;;;;;;3.50;3.00;;;29.00;34.10;;;;;;5028628;28;20419;-86
2023/05/31 10:38:30;;;;;;;5.87;3.10;;;26.00;34.30;;;;;;5040026;28;20455;-86
2023/05/31 10:41:03;;;;;;;4.37;2.97;;;25.00;36.00;;;;;;5053291;28;20446;-89
2023/05/31 10:43:34;;;;;;;4.53;3.80;;;24.70;36.70;;;;;;5050432;28;20457;-87
2023/05/31 10:46:08;;;;;;;2.93;2.50;;;24.50;38.10;;;;;;5054003;28;20419;-88
2023/05/31 10:48:52;;;;;;;3.53;2.67;;;24.30;39.30;;;;;;5048445;28;21241;-88
2023/05/31 10:51:18;;;;;;;4.57;3.00;;;24.30;39.70;;;;;;5052162;28;20491;-88
2023/05/31 10:53:48;;;;;;;4.90;2.63;;;24.20;39.00;;;;;;5051466;28;20466;-88
2023/05/31 10:56:14;;;;;;;4.17;2.77;;;24.90;39.30;;;;;;5050639;28;20503;-88
2023/05/31 10:58:42;;;;;;;3.30;2.80;;;24.20;38.20;;;;;;5049794;28;20441;-87
2023/05/31 11:01:13;;;;;;;2.83;2.30;;;24.40;39.00;;;;;;5037013;28;20428;-88
2023/05/31 11:03:52;;;;;;;3.30;3.00;;;24.30;38.60;;;;;;5051925;28;20446;-88
2023/05/31 11:06:30;;;;;;;2.40;2.20;;;24.10;37.60;;;;;;5049910;28;21012;-86
2023/05/31 11:09:12;;;;;;;4.90;2.83;;;23.90;38.00;;;;;;5047553;28;20912;-88
2023/05/31 11:11:41;;;;;;;3.97;2.17;;;23.90;38.80;;;;;;5028574;28;20991;-89
2023/05/31 11:14:25;;;;;;;3.50;2.80;;;25.00;39.50;;;;;;5027278;28;20435;-87
2023/05/31 11:16:53;;;;;;;3.23;2.93;;;24.20;39.30;;;;;;5050913;28;21001;-87
2023/05/31 11:19:26;;;;;;;5.33;2.80;;;24.10;38.30;;;;;;5050540;28;20463;-88
2023/05/31 11:21:54;;;;;;;5.70;2.40;;;24.40;39.30;;;;;;5051002;28;20466;-88
2023/05/31 11:24:33;;;;;;;3.33;2.33;;;24.30;39.90;;;;;;5028440;28;20419;-86
2023/05/31 11:27:00;;;;;;;3.80;2.23;;;24.70;38.90;;;;;;5049832;28;20522;-88
2023/05/31 11:29:48;;;;;;;7.73;3.00;;;24.30;38.10;;;;;;5048532;28;20538;-88
2023/05/31 11:32:15;;;;;;;4.90;2.27;;;24.40;38.70;;;;;;5027951;28;20451;-86
2023/05/31 11:34:56;;;;;;;5.07;2.63;;;24.40;37.80;;;;;;5074189;28;20428;-85
2023/05/31 11:37:33;;;;;;;3.43;2.23;;;24.30;38.00;;;;;;5050601;28;20527;-86
2023/05/31 11:40:06;;;;;;;7.50;3.17;;;24.40;38.10;;;;;;5049649;28;21042;-87
2023/05/31 11:42:32;;;;;;;2.77;2.50;;;24.20;37.90;;;;;;5044304;28;20431;-87
2023/05/31 11:45:04;;;;;;;4.00;2.50;;;24.40;39.60;;;;;;5049202;28;20431;-88
2023/05/31 11:47:42;;;;;;;4.33;2.33;;;24.60;38.60;;;;;;5050910;28;20923;-87
2023/05/31 11:50:13;;;;;;;3.00;2.60;;;24.70;38.00;;;;;;5048204;28;20495;-87
2023/05/31 11:52:40;;;;;;;5.30;2.17;;;24.50;37.80;;;;;;5049946;28;20425;-87
2023/05/31 11:55:07;;;;;;;3.73;2.60;;;24.60;38.10;;;;;;5046805;28;20429;-88
2023/05/31 11:57:41;;;;;;;4.20;2.50;;;24.50;37.30;;;;;;5036058;28;20522;-88
2023/05/31 12:00:10;;;;;;;2.40;2.07;;;24.70;36.80;;;;;;5048106;28;20534;-87
2023/05/31 12:02:36;;;;;;;3.73;2.63;;;24.70;37.50;;;;;;5032761;28;21137;-88
2023/05/31 12:05:03;;;;;;;3.47;2.23;;;;;;;;;;5031793;28;20423;-87
2023/05/31 12:07:28;;;;;;;3.20;2.20;;;24.70;36.80;;;;;;5052524;28;20189;-86
2023/05/31 12:09:54;;;;;;;4.60;2.60;;;;;;;;;;5048370;28;20465;-87
2023/05/31 12:12:20;;;;;;;2.97;2.57;;;24.90;37.20;;;;;;5053454;28;20179;-88
2023/05/31 12:14:54;;;;;;;3.57;2.70;;;24.70;36.40;;;;;;5051188;28;20939;-87
2023/05/31 12:17:20;;;;;;;2.90;2.10;;;24.50;36.80;;;;;;5035638;28;20189;-87
2023/05/31 12:19:48;;;;;;;3.63;2.70;;;24.40;37.00;;;;;;5038186;28;20452;-88
2023/05/31 12:22:14;;;;;;;6.40;2.60;;;24.60;38.00;;;;;;5051709;28;20428;-87
2023/05/31 12:24:51;;;;;;;2.70;2.50;;;24.80;36.60;;;;;;5050123;28;20431;-88
2023/05/31 12:27:18;;;;;;;2.53;2.33;;;24.90;37.80;;;;;;5052527;28;20431;-86
2023/05/31 12:29:44;;;;;;;5.13;3.00;;;24.80;38.10;;;;;;5046299;28;20480;-87
2023/05/31 12:32:10;;;;;;;3.67;2.30;;;;;;;;;;5051852;28;20473;-88
2023/05/31 12:34:37;;;;;;;2.80;2.40;;;25.00;36.40;;;;;;5044966;28;20595;-87
2023/05/31 12:37:07;;;;;;;4.00;2.37;;;24.80;36.70;;;;;;5022962;28;20439;-87
2023/05/31 12:39:36;;;;;;;3.93;2.60;;;25.00;37.50;;;;;;5040625;28;21262;-87
2023/05/31 12:42:03;;;;;;;3.30;3.00;;;25.00;37.30;;;;;;5037588;28;20446;-88
2023/05/31 12:44:30;;;;;;;3.70;3.40;;;24.90;36.40;;;;;;5032667;28;20415;-88
2023/05/31 12:47:04;;;;;;;2.50;2.30;;;24.90;36.90;;;;;;5050684;28;20430;-87
2023/05/31 12:49:31;;;;;;;3.87;2.90;;;24.90;36.70;;;;;;5058721;28;20471;-86
2023/05/31 12:52:03;;;;;;;4.53;3.10;;;24.90;37.30;;;;;;5071280;28;20514;-85
2023/05/31 12:54:34;;;;;;;5.13;3.13;;;25.00;37.90;;;;;;5057245;28;20444;-85
2023/05/31 12:57:02;;;;;;;3.00;2.70;;;24.80;37.00;;;;;;5067891;28;20744;-86
2023/05/31 12:59:28;;;;;;;3.60;2.73;;;;;;;;;;5042494;28;20443;-88
2023/05/31 13:01:55;;;;;;;3.97;2.77;;;24.90;36.50;;;;;;5049542;28;20504;-88
2023/05/31 13:04:20;;;;;;;3.00;2.60;;;25.00;37.40;;;;;;5035138;28;21285;-86
2023/05/31 13:06:46;;;;;;;2.67;2.13;;;25.10;35.90;;;;;;5061160;28;20436;-87
2023/05/31 13:09:12;;;;;;;4.50;3.10;;;;;;;;;;5030583;28;20280;-86
2023/05/31 13:11:38;;;;;;;3.40;2.57;;;25.20;35.40;;;;;;5028945;28;20558;-87
2023/05/31 13:14:05;;;;;;;4.13;2.93;;;25.30;36.80;;;;;;5022206;28;20825;-88
2023/05/31 13:16:31;;;;;;;12.27;3.00;;;;;;;;;;5047326;28;20432;-88
2023/05/31 13:18:58;;;;;;;3.00;2.63;;;25.40;36.50;;;;;;5050345;28;20474;-87
2023/05/31 13:21:24;;;;;;;2.90;2.47;;;;;;;;;;5049049;28;20437;-87
2023/05/31 13:23:50;;;;;;;2.27;1.90;;;;;;;;;;5049032;28;20978;-87
2023/05/31 13:26:16;;;;;;;2.80;2.27;;;25.50;35.60;;;;;;5050395;28;20457;-87
2023/05/31 13:28:42;;;;;;;2.70;2.50;;;;;;;;;;5048398;28;20458;-88
2023/05/31 13:31:08;;;;;;;2.70;2.20;;;25.30;34.50;;;;;;5047022;28;20525;-88
2023/05/31 13:33:34;;;;;;;2.57;2.33;;;;;;;;;;5027481;28;20451;-87